createdAt,value
2023-01-20T00:01:32.706Z,99959.34
2023-01-20T00:04:00.675Z,99948.69
2023-01-20T00:06:28.499Z,99961.91
2023-01-20T00:08:57.605Z,99935.53
2023-01-20T00:11:25.515Z,99942.47
2023-01-20T00:13:56.894Z,99956.38
2023-01-20T00:16:24.611Z,99961.13
2023-01-20T00:18:51.723Z,99966.44
2023-01-20T00:21:18.788Z,99967.16
2023-01-20T00:23:47.093Z,99974.44
2023-01-20T00:26:17.861Z,99969.47
2023-01-20T00:28:45.700Z,99973.69
2023-01-20T00:31:13.740Z,99984.59
2023-01-20T00:36:36.298Z,100008.81
2023-01-20T00:39:04.646Z,100034.69
2023-01-20T00:41:31.686Z,100061.31
2023-01-20T00:43:58.723Z,100072.81
2023-01-20T00:46:25.824Z,100085.75
2023-01-20T00:48:53.153Z,100092.03
2023-01-20T00:51:21.381Z,100095.28
2023-01-20T00:53:48.430Z,100113.44
2023-01-20T00:56:15.565Z,100136.44
2023-01-20T00:58:44.655Z,100134.53
2023-01-20T01:01:12.820Z,100150.97
2023-01-20T01:03:42.628Z,100140.34
2023-01-20T01:06:12.783Z,100146.50
2023-01-20T01:08:44.594Z,100140.44
2023-01-20T01:11:13.271Z,100152.78
2023-01-20T01:13:40.351Z,100152.06
2023-01-20T01:16:15.732Z,100149.38
2023-01-20T01:18:49.475Z,100164.16
2023-01-20T01:21:17.231Z,100163.19
2023-01-20T01:23:46.582Z,100166.94
2023-01-20T01:26:14.618Z,100185.66
2023-01-20T01:28:41.754Z,100189.53
2023-01-20T01:31:09.693Z,100192.34
2023-01-20T01:33:37.125Z,100199.56
2023-01-20T01:36:05.011Z,100213.00
2023-01-20T01:38:32.691Z,100217.94
2023-01-20T01:41:00.124Z,100214.53
2023-01-20T01:43:29.236Z,100227.97
2023-01-20T01:45:56.899Z,100237.13
2023-01-20T01:48:30.673Z,100255.66
2023-01-20T01:51:09.762Z,100262.03
2023-01-20T01:53:43.989Z,100265.69
2023-01-20T01:56:12.112Z,100274.88
2023-01-20T01:58:42.316Z,100280.50
2023-01-20T02:01:10.063Z,100285.97
2023-01-20T02:04:10.312Z,100292.97
2023-01-20T02:06:42.580Z,100287.88
2023-01-20T02:09:10.119Z,100289.81
2023-01-20T02:11:48.566Z,100300.66
2023-01-20T02:14:18.407Z,100311.28
2023-01-20T02:17:17.623Z,100310.06
2023-01-20T02:19:59.659Z,100326.47
2023-01-20T02:22:51.316Z,100335.38
2023-01-20T02:25:33.770Z,100344.56
2023-01-20T02:28:30.793Z,100364.56
2023-01-20T02:31:25.799Z,100375.63
2023-01-20T02:34:08.753Z,100388.59
2023-01-20T02:36:54.968Z,100403.03
2023-01-20T02:39:31.325Z,100408.03
2023-01-20T02:42:11.654Z,100400.91
2023-01-20T02:44:59.685Z,100398.16
2023-01-20T02:47:51.737Z,100392.75
2023-01-20T02:50:40.362Z,100390.28
2023-01-20T02:53:09.539Z,100397.72
2023-01-20T02:55:47.550Z,100404.03
2023-01-20T02:58:21.583Z,100416.34
2023-01-20T03:00:53.939Z,100426.66
2023-01-20T03:03:30.135Z,100440.03
2023-01-20T03:05:59.959Z,100441.56
2023-01-20T03:08:31.200Z,100442.19
2023-01-20T03:11:06.560Z,100445.81
2023-01-20T03:13:53.993Z,100449.41
2023-01-20T03:16:25.746Z,100444.31
2023-01-20T03:18:52.806Z,100453.25
2023-01-20T03:21:19.756Z,100454.31
2023-01-20T03:23:50.484Z,100451.75
2023-01-20T03:26:20.447Z,100459.81
2023-01-20T03:28:48.981Z,100458.97
2023-01-20T03:31:23.699Z,100460.91
2023-01-20T03:33:51.963Z,100471.72
2023-01-20T03:36:21.696Z,100471.09
2023-01-20T03:38:49.697Z,100486.06
2023-01-20T03:41:30.720Z,100500.22
2023-01-20T03:44:27.515Z,100509.13
2023-01-20T03:47:31.811Z,100508.28
2023-01-20T03:50:18.229Z,100510.84
2023-01-20T03:52:52.816Z,100519.75
2023-01-20T03:55:25.875Z,100530.41
2023-01-20T03:58:10.335Z,100528.19
2023-01-20T04:00:42.546Z,100527.66
2023-01-20T04:03:15.981Z,100531.06
2023-01-20T04:05:44.718Z,100537.03
2023-01-20T04:08:14.122Z,100546.81
2023-01-20T04:10:44.855Z,100547.56
2023-01-20T04:13:11.807Z,100551.72
2023-01-20T04:15:44.947Z,100559.56
2023-01-20T04:18:21.196Z,100564.78
2023-01-20T04:20:51.629Z,100562.88
2023-01-20T04:23:28.073Z,100560.00
2023-01-20T04:25:55.036Z,100562.75
2023-01-20T04:28:22.108Z,100570.75
2023-01-20T04:30:49.138Z,100567.66
2023-01-20T04:33:16.218Z,100578.31
2023-01-20T04:35:43.214Z,100582.13
2023-01-20T04:38:10.183Z,100580.41
2023-01-20T04:40:37.278Z,100583.16
2023-01-20T04:43:04.217Z,100591.22
2023-01-20T04:45:31.160Z,100596.75
2023-01-20T04:47:58.129Z,100599.50
2023-01-20T04:50:25.080Z,100614.81
2023-01-20T04:52:55.811Z,100622.16
2023-01-20T04:55:22.811Z,100623.19
2023-01-20T04:57:49.761Z,100628.41
2023-01-20T05:00:20.232Z,100632.00
2023-01-20T05:02:47.573Z,100640.19
2023-01-20T05:05:14.984Z,100643.91
2023-01-20T05:07:42.142Z,100645.81
2023-01-20T05:10:09.981Z,100650.38
2023-01-20T05:12:37.035Z,100660.44
2023-01-20T05:15:04.436Z,100667.13
2023-01-20T05:17:31.376Z,100679.06
2023-01-20T05:19:58.476Z,100679.47
2023-01-20T05:22:25.408Z,100690.28
2023-01-20T05:24:52.477Z,100695.97
2023-01-20T05:27:19.516Z,100701.84
2023-01-20T05:29:46.428Z,100705.66
2023-01-20T05:32:13.304Z,100714.78
2023-01-20T05:34:40.272Z,100718.38
2023-01-20T05:37:07.369Z,100724.81
2023-01-20T05:39:34.381Z,100734.13
2023-01-20T05:42:02.204Z,100732.47
2023-01-20T05:44:29.366Z,100742.59
2023-01-20T05:46:56.348Z,100751.72
2023-01-20T05:49:23.303Z,100750.19
2023-01-20T05:51:50.196Z,100760.06
2023-01-20T05:54:17.113Z,100760.41
2023-01-20T05:56:43.978Z,100768.53
2023-01-20T05:59:10.930Z,100774.03
2023-01-20T06:01:38.099Z,100783.13
2023-01-20T06:04:05.154Z,100788.63
2023-01-20T06:06:33.024Z,100793.16
2023-01-20T06:08:59.920Z,100803.00
2023-01-20T06:11:27.408Z,100819.09
2023-01-20T06:13:54.342Z,100828.19
2023-01-20T06:16:21.565Z,100831.94
2023-01-20T06:18:48.604Z,100839.13
2023-01-20T06:21:15.634Z,100850.06
2023-01-20T06:23:42.563Z,100849.31
2023-01-20T06:26:12.804Z,100861.06
2023-01-20T06:28:39.907Z,100863.94
2023-01-20T06:31:09.877Z,100873.94
2023-01-20T06:33:38.487Z,100881.19
2023-01-20T06:36:07.076Z,100899.13
2023-01-20T06:38:35.848Z,100897.44
2023-01-20T06:41:08.167Z,100908.19
2023-01-20T06:43:35.842Z,100916.41
2023-01-20T06:46:07.404Z,100921.03
2023-01-20T06:48:34.868Z,100925.63
2023-01-20T06:51:12.096Z,100921.34
2023-01-20T06:53:39.343Z,100925.28
2023-01-20T06:56:06.714Z,100942.34
2023-01-20T06:58:34.224Z,100949.63
2023-01-20T07:01:23.429Z,100949.63
2023-01-20T07:03:51.318Z,100963.00
2023-01-20T07:06:30.328Z,100974.63
2023-01-20T07:08:59.513Z,100984.69
2023-01-20T07:11:27.517Z,100991.88
2023-01-20T07:13:54.726Z,100997.31
2023-01-20T07:16:21.769Z,100999.66
2023-01-20T07:18:50.215Z,101013.50
2023-01-20T07:21:17.899Z,101018.00
2023-01-20T07:23:45.196Z,101019.91
2023-01-20T07:26:14.743Z,101028.13
2023-01-20T07:28:41.945Z,101040.63
2023-01-20T07:31:16.474Z,101049.25
2023-01-20T07:33:44.154Z,101058.94
2023-01-20T07:36:12.587Z,101063.94
2023-01-20T07:38:40.380Z,101064.94
2023-01-20T07:41:11.745Z,101067.50
2023-01-20T07:43:39.155Z,101078.97
2023-01-20T07:46:06.177Z,101093.31
2023-01-20T07:48:34.203Z,101092.50
2023-01-20T07:51:06.992Z,101097.59
2023-01-20T07:53:39.714Z,101091.00
2023-01-20T07:56:10.574Z,101093.25
2023-01-20T07:58:38.194Z,101091.31
2023-01-20T08:01:11.151Z,101109.47
2023-01-20T08:03:38.281Z,101108.13
2023-01-20T08:06:11.325Z,101109.91
2023-01-20T08:08:38.635Z,101121.88
2023-01-20T08:11:06.838Z,101123.19
2023-01-20T08:13:34.565Z,101136.22
2023-01-20T08:16:07.647Z,101136.69
2023-01-20T08:18:35.568Z,101144.22
2023-01-20T08:21:08.302Z,101145.50
2023-01-20T08:23:36.239Z,101150.72
2023-01-20T08:26:06.433Z,101151.59
2023-01-20T08:28:35.950Z,101161.22
2023-01-20T08:31:14.661Z,101169.34
2023-01-20T08:33:43.046Z,101174.38
2023-01-20T08:36:16.945Z,101174.09
2023-01-20T08:38:44.731Z,101183.78
2023-01-20T08:41:18.275Z,101184.28
2023-01-20T08:43:45.574Z,101185.09
2023-01-20T08:46:15.422Z,101179.38
2023-01-20T08:48:43.586Z,101184.44
2023-01-20T08:51:14.972Z,101184.75
2023-01-20T08:53:42.538Z,101182.34
2023-01-20T08:56:10.523Z,101198.59
2023-01-20T08:58:38.429Z,101199.00
2023-01-20T09:01:11.492Z,101188.03
2023-01-20T09:03:40.091Z,101200.25
2023-01-20T09:06:08.287Z,101197.59
2023-01-20T09:08:35.715Z,101193.34
2023-01-20T09:11:06.996Z,101187.78
2023-01-20T09:13:34.302Z,101184.53
2023-01-20T09:16:01.972Z,101188.72
2023-01-20T09:18:29.154Z,101193.97
2023-01-20T09:20:58.956Z,101190.88
2023-01-20T09:23:26.710Z,101200.78
2023-01-20T09:25:53.751Z,101191.84
2023-01-20T09:28:21.060Z,101188.31
2023-01-20T09:30:48.129Z,101200.25
2023-01-20T09:33:15.259Z,101204.34
2023-01-20T09:35:42.532Z,101203.03
2023-01-20T09:38:28.079Z,101212.16
2023-01-20T09:41:44.310Z,101209.41
2023-01-20T09:44:49.470Z,101220.47
2023-01-20T09:47:26.708Z,101226.09
2023-01-20T09:50:36.420Z,101226.72
2023-01-20T09:53:45.916Z,101229.06
2023-01-20T09:56:17.465Z,101233.81
2023-01-20T09:58:52.412Z,101240.66
2023-01-20T10:01:44.922Z,101243.44
2023-01-20T10:04:46.514Z,101241.50
2023-01-20T10:07:18.303Z,101254.00
2023-01-20T10:10:05.654Z,101238.13
2023-01-20T10:12:40.631Z,101234.97
2023-01-20T10:15:20.654Z,101230.41
2023-01-20T10:18:20.626Z,101250.78
2023-01-20T10:21:07.952Z,101240.84
2023-01-20T10:23:37.622Z,101253.44
2023-01-20T10:26:22.901Z,101263.59
2023-01-20T10:28:58.729Z,101256.91
2023-01-20T10:31:28.765Z,101254.97
2023-01-20T10:34:01.953Z,101257.16
2023-01-20T10:36:35.055Z,101275.22
2023-01-20T10:39:12.456Z,101266.25
2023-01-20T10:41:47.317Z,101281.16
2023-01-20T10:44:16.049Z,101270.22
2023-01-20T10:46:48.825Z,101266.97
2023-01-20T10:49:47.216Z,101264.16
2023-01-20T10:52:53.160Z,101272.53
2023-01-20T10:55:54.370Z,101275.53
2023-01-20T10:58:31.998Z,101272.97
2023-01-20T11:01:03.632Z,101265.31
2023-01-20T11:03:42.969Z,101272.53
2023-01-20T11:06:27.913Z,101271.69
2023-01-20T11:08:56.600Z,101271.06
2023-01-20T11:11:29.042Z,101286.09
2023-01-20T11:13:57.570Z,101277.41
2023-01-20T11:16:31.512Z,101272.03
2023-01-20T11:19:04.779Z,101279.00
2023-01-20T11:21:36.641Z,101275.97
2023-01-20T11:24:32.771Z,101272.84
2023-01-20T11:27:11.797Z,101271.44
2023-01-20T11:29:43.755Z,101267.19
2023-01-20T11:32:34.922Z,101269.34
2023-01-20T11:35:18.775Z,101272.72
2023-01-20T11:37:45.851Z,101268.00
2023-01-20T11:40:25.870Z,101261.72
2023-01-20T11:42:54.146Z,101274.88
2023-01-20T11:45:30.518Z,101269.81
2023-01-20T11:48:15.983Z,101276.44
2023-01-20T11:50:50.334Z,101280.34
2023-01-20T11:53:24.010Z,101281.25
2023-01-20T11:55:54.236Z,101277.63
2023-01-20T11:58:28.141Z,101271.97
2023-01-20T12:01:18.941Z,101280.06
2023-01-20T12:04:07.918Z,101264.91
2023-01-20T12:07:03.523Z,101280.31
2023-01-20T12:09:39.614Z,101281.88
2023-01-20T12:12:07.362Z,101290.69
2023-01-20T12:14:47.290Z,101279.97
2023-01-20T12:17:14.669Z,101269.06
2023-01-20T12:19:54.127Z,101282.59
2023-01-20T12:22:32.907Z,101269.00
2023-01-20T12:25:11.258Z,101264.88
2023-01-20T12:27:45.237Z,101260.91
2023-01-20T12:30:39.514Z,101271.72
2023-01-20T12:33:17.750Z,101264.31
2023-01-20T12:36:02.907Z,101265.03
2023-01-20T12:38:48.277Z,101259.81
2023-01-20T12:41:38.912Z,101258.09
2023-01-20T12:44:44.852Z,101254.16
2023-01-20T12:47:19.233Z,101252.00
2023-01-20T12:50:01.920Z,101254.25
2023-01-20T12:53:20.461Z,101251.94
2023-01-20T12:56:14.130Z,101260.81
2023-01-20T12:58:53.020Z,101266.41
2023-01-20T13:01:45.008Z,101252.34
2023-01-20T13:04:42.529Z,101245.53
2023-01-20T13:07:18.134Z,101255.38
2023-01-20T13:09:45.088Z,101257.56
2023-01-20T13:12:33.483Z,101259.63
2023-01-20T13:15:18.188Z,101244.78
2023-01-20T13:18:03.790Z,101253.28
2023-01-20T13:20:31.931Z,101259.06
2023-01-20T13:23:04.448Z,101245.75
2023-01-20T13:25:34.247Z,101252.56
2023-01-20T13:28:01.652Z,101250.28
2023-01-20T13:30:37.936Z,101250.91
2023-01-20T13:33:13.093Z,101247.97
2023-01-20T13:35:49.022Z,101259.06
2023-01-20T13:38:36.129Z,101266.66
2023-01-20T13:41:06.301Z,101257.09
2023-01-20T13:43:37.954Z,101267.47
2023-01-20T13:46:04.875Z,101255.44
2023-01-20T13:48:34.356Z,101254.78
2023-01-20T13:51:17.040Z,101253.72
2023-01-20T13:53:43.973Z,101254.94
2023-01-20T13:56:32.953Z,101258.34
2023-01-20T13:59:00.418Z,101253.72
2023-01-20T14:01:28.786Z,101252.50
2023-01-20T14:04:20.737Z,101251.34
2023-01-20T14:06:51.282Z,101254.19
2023-01-20T14:09:23.759Z,101252.97
2023-01-20T14:11:56.120Z,101254.22
2023-01-20T14:14:27.387Z,101248.03
2023-01-20T14:16:56.344Z,101248.41
2023-01-20T14:19:25.535Z,101257.53
2023-01-20T14:22:04.181Z,101258.66
2023-01-20T14:24:36.844Z,101256.19
2023-01-20T14:27:16.143Z,101255.72
2023-01-20T14:29:44.197Z,101257.41
2023-01-20T14:32:22.802Z,101251.47
2023-01-20T14:34:51.270Z,101258.16
2023-01-20T14:37:33.447Z,101254.00
2023-01-20T14:40:23.193Z,101257.16
2023-01-20T14:42:57.364Z,101261.44
2023-01-20T14:45:26.762Z,101258.66
2023-01-20T14:47:57.042Z,101256.94
2023-01-20T14:50:24.679Z,101263.03
2023-01-20T14:52:51.817Z,101264.00
2023-01-20T14:55:28.088Z,101252.75
2023-01-20T14:57:55.552Z,101265.47
2023-01-20T15:00:26.808Z,101256.69
2023-01-20T15:03:16.837Z,101268.88
2023-01-20T15:06:06.037Z,101261.19
2023-01-20T15:08:32.933Z,101259.63
2023-01-20T15:11:32.900Z,101269.88
2023-01-20T15:14:02.614Z,101273.50
2023-01-20T15:16:50.748Z,101276.94
2023-01-20T15:19:34.460Z,101274.13
2023-01-20T15:22:30.800Z,101271.06
2023-01-20T15:25:12.385Z,101271.06
2023-01-20T15:27:39.442Z,101271.31
2023-01-20T15:30:24.560Z,101269.97
2023-01-20T15:32:52.168Z,101277.28
2023-01-20T15:35:23.062Z,101279.84
2023-01-20T15:37:50.524Z,101279.38
2023-01-20T15:40:24.881Z,101284.72
2023-01-20T15:42:53.495Z,101282.31
2023-01-20T15:45:20.684Z,101280.09
2023-01-20T15:47:47.853Z,101286.44
2023-01-20T15:50:21.737Z,101284.13
2023-01-20T15:52:49.248Z,101287.16
2023-01-20T15:55:18.375Z,101294.44
2023-01-20T15:57:49.891Z,101284.22
2023-01-20T16:00:21.717Z,101301.25
2023-01-20T16:02:49.173Z,101300.75
2023-01-20T16:05:17.694Z,101301.00
2023-01-20T16:07:47.060Z,101307.59
2023-01-20T16:10:16.439Z,101315.34
2023-01-20T16:12:44.613Z,101318.53
2023-01-20T16:15:16.562Z,101316.06
2023-01-20T16:17:44.003Z,101327.47
2023-01-20T16:20:21.092Z,101327.22
2023-01-20T16:22:48.127Z,101349.59
2023-01-20T16:25:15.144Z,101348.13
2023-01-20T16:27:42.056Z,101356.25
2023-01-20T16:30:15.585Z,101358.59
2023-01-20T16:32:46.646Z,101364.00
2023-01-20T16:35:15.383Z,101368.91
2023-01-20T16:37:44.764Z,101360.84
2023-01-20T16:40:21.495Z,101373.03
2023-01-20T16:42:48.616Z,101377.88
2023-01-20T16:45:29.731Z,101375.19
2023-01-20T16:47:57.218Z,101376.06
2023-01-20T16:50:26.114Z,101387.84
2023-01-20T16:52:53.049Z,101398.50
2023-01-20T16:55:20.270Z,101392.91
2023-01-20T16:57:47.192Z,101392.22
2023-01-20T17:00:17.421Z,101397.41
2023-01-20T17:02:49.759Z,101399.88
2023-01-20T17:05:22.330Z,101401.81
2023-01-20T17:07:50.358Z,101407.97
2023-01-20T17:10:18.163Z,101416.66
2023-01-20T17:12:48.641Z,101411.13
2023-01-20T17:15:15.981Z,101416.47
2023-01-20T17:17:43.422Z,101414.53
2023-01-20T17:20:10.833Z,101421.38
2023-01-20T17:22:39.348Z,101412.38
2023-01-20T17:25:08.573Z,101416.81
2023-01-20T17:27:36.826Z,101426.81
2023-01-20T17:30:07.635Z,101419.66
2023-01-20T17:32:38.142Z,101428.72
2023-01-20T17:35:05.498Z,101428.72
2023-01-20T17:37:32.366Z,101425.50
2023-01-20T17:40:00.851Z,101437.41
2023-01-20T17:42:27.750Z,101434.38
2023-01-20T17:44:58.461Z,101438.88
2023-01-20T17:47:25.461Z,101445.88
2023-01-20T17:49:52.409Z,101449.53
2023-01-20T17:52:20.716Z,101452.22
2023-01-20T17:54:47.622Z,101450.41
2023-01-20T17:57:15.237Z,101453.72
2023-01-20T17:59:42.184Z,101448.19
2023-01-20T18:02:12.853Z,101456.00
2023-01-20T18:04:39.883Z,101444.22
2023-01-20T18:07:07.352Z,101455.25
2023-01-20T18:09:34.579Z,101455.63
2023-01-20T18:12:01.768Z,101453.16
2023-01-20T18:14:28.701Z,101452.38
2023-01-20T18:16:56.106Z,101460.47
2023-01-20T18:19:23.684Z,101464.97
2023-01-20T18:21:50.739Z,101471.38
2023-01-20T18:24:17.692Z,101471.28
2023-01-20T18:26:44.802Z,101469.69
2023-01-20T18:29:16.815Z,101474.25
2023-01-20T18:31:46.691Z,101471.78
2023-01-20T18:34:15.931Z,101478.03
2023-01-20T18:36:49.498Z,101481.84
2023-01-20T18:39:22.133Z,101488.03
2023-01-20T18:41:50.750Z,101496.91
2023-01-20T18:44:19.140Z,101499.56
2023-01-20T18:46:46.779Z,101495.34
2023-01-20T18:49:15.282Z,101499.91
2023-01-20T18:51:43.002Z,101500.94
2023-01-20T18:54:17.577Z,101503.88
2023-01-20T18:56:46.206Z,101500.47
2023-01-20T18:59:13.287Z,101499.69
2023-01-20T19:01:41.785Z,101504.44
2023-01-20T19:04:10.949Z,101504.69
2023-01-20T19:06:41.415Z,101507.44
2023-01-20T19:09:09.942Z,101501.72
2023-01-20T19:11:42.315Z,101509.03
2023-01-20T19:14:15.635Z,101503.03
2023-01-20T19:16:45.544Z,101505.00
2023-01-20T19:19:13.059Z,101514.97
2023-01-20T19:21:40.014Z,101522.38
2023-01-20T19:24:08.172Z,101514.56
2023-01-20T19:26:37.630Z,101518.44
2023-01-20T19:29:07.890Z,101518.69
2023-01-20T19:31:38.388Z,101521.53
2023-01-20T19:34:09.708Z,101525.28
2023-01-20T19:36:37.149Z,101523.94
2023-01-20T19:39:04.832Z,101524.09
2023-01-20T19:41:36.314Z,101524.28
2023-01-20T19:44:06.752Z,101515.84
2023-01-20T19:46:37.055Z,101515.25
2023-01-20T19:49:04.654Z,101515.31
2023-01-20T19:51:31.671Z,101518.94
2023-01-20T19:54:01.050Z,101522.63
2023-01-20T19:56:30.490Z,101520.22
2023-01-20T19:58:58.107Z,101519.63
2023-01-20T20:01:31.763Z,101516.41
2023-01-20T20:03:59.969Z,101520.78
2023-01-20T20:06:33.779Z,101514.88
2023-01-20T20:09:10.899Z,101515.03
2023-01-20T20:11:38.740Z,101515.97
2023-01-20T20:14:07.461Z,101513.50
2023-01-20T20:16:36.912Z,101516.16
2023-01-20T20:19:05.091Z,101510.97
2023-01-20T20:21:32.593Z,101525.22
2023-01-20T20:24:01.575Z,101510.13
2023-01-20T20:26:31.638Z,101515.53
2023-01-20T20:28:59.993Z,101525.38
2023-01-20T20:31:29.551Z,101515.78
2023-01-20T20:34:01.548Z,101516.75
2023-01-20T20:36:31.204Z,101511.69
2023-01-20T20:38:59.738Z,101518.81
2023-01-20T20:41:29.285Z,101511.38
2023-01-20T20:43:56.694Z,101511.56
2023-01-20T20:46:24.308Z,101510.00
2023-01-20T20:49:00.992Z,101508.75
2023-01-20T20:51:31.946Z,101511.50
2023-01-20T20:54:01.470Z,101515.25
2023-01-20T20:56:31.878Z,101524.16
2023-01-20T20:59:02.796Z,101513.53
2023-01-20T21:01:33.858Z,101518.16
2023-01-20T21:04:02.184Z,101509.56
2023-01-20T21:06:30.246Z,101513.16
2023-01-20T21:08:59.313Z,101503.63
2023-01-20T21:11:27.050Z,101502.00
2023-01-20T21:13:54.238Z,101496.81
2023-01-20T21:16:23.420Z,101504.16
2023-01-20T21:18:52.408Z,101499.00
2023-01-20T21:21:20.351Z,101494.78
2023-01-20T21:23:52.288Z,101507.38
2023-01-20T21:26:19.968Z,101510.28
2023-01-20T21:28:49.393Z,101522.13
2023-01-20T21:31:22.586Z,101530.09
2023-01-20T21:34:00.847Z,101518.66
2023-01-20T21:36:29.680Z,101528.69
2023-01-20T21:38:58.126Z,101525.06
2023-01-20T21:41:25.212Z,101514.63
2023-01-20T21:44:10.714Z,101528.88
2023-01-20T21:46:40.517Z,101529.28
2023-01-20T21:49:29.215Z,101533.09
2023-01-20T21:52:15.457Z,101533.19
2023-01-20T21:54:46.473Z,101528.00
2023-01-20T21:57:14.875Z,101525.44
2023-01-20T21:59:43.042Z,101521.13
2023-01-20T22:02:13.734Z,101516.75
2023-01-20T22:04:41.206Z,101510.66
2023-01-20T22:07:08.184Z,101518.69
2023-01-20T22:09:35.170Z,101519.56
2023-01-20T22:12:02.759Z,101514.25
2023-01-20T22:14:30.113Z,101512.50
2023-01-20T22:16:57.607Z,101521.41
2023-01-20T22:19:24.648Z,101519.06
2023-01-20T22:21:51.748Z,101530.63
2023-01-20T22:24:19.124Z,101530.75
2023-01-20T22:26:50.507Z,101541.34
2023-01-20T22:29:18.210Z,101544.16
2023-01-20T22:31:46.181Z,101548.81
2023-01-20T22:34:13.995Z,101550.78
2023-01-20T22:36:40.917Z,101550.72
2023-01-20T22:39:09.576Z,101548.06
2023-01-20T22:41:36.455Z,101557.88
2023-01-20T22:44:03.415Z,101548.19
2023-01-20T22:46:31.125Z,101545.53
2023-01-20T22:48:59.434Z,101543.78
2023-01-20T22:51:29.309Z,101542.81
2023-01-20T22:53:58.032Z,101550.84
2023-01-20T22:56:32.920Z,101547.25
2023-01-20T22:59:00.688Z,101547.41
2023-01-20T23:01:33.595Z,101542.22
2023-01-20T23:04:03.243Z,101554.72
2023-01-20T23:06:32.913Z,101543.38
2023-01-20T23:09:06.917Z,101552.28
2023-01-20T23:11:36.481Z,101542.66
2023-01-20T23:14:04.249Z,101547.25
2023-01-20T23:16:31.566Z,101547.31
2023-01-20T23:18:58.500Z,101542.22
2023-01-20T23:21:26.093Z,101546.94
2023-01-20T23:23:55.893Z,101549.72
2023-01-20T23:26:35.327Z,101547.19
2023-01-20T23:29:02.419Z,101549.19
2023-01-20T23:31:33.282Z,101545.16
2023-01-20T23:34:00.353Z,101549.72
2023-01-20T23:36:27.298Z,101542.06
2023-01-20T23:38:55.892Z,101539.69
2023-01-20T23:41:24.047Z,101538.09
2023-01-20T23:43:51.222Z,101537.53
2023-01-20T23:46:18.469Z,101540.50
2023-01-20T23:48:47.556Z,101529.22
2023-01-20T23:51:15.450Z,101533.13
2023-01-20T23:53:42.672Z,101529.16
2023-01-20T23:56:15.585Z,101528.50
2023-01-20T23:58:43.235Z,101536.69
